BNK weather

Ballina Byron Gateway Airport
Ballina, New South Wales, Australia

Public forecast

Using degrees Celsius for public forecast. Weather courtesy of forecast.io.

Current aviation weather report (METAR) for Ballina Byron Gateway Airport

Retrieved 2019/11/13 11:00 UTC (26 minutes ago):

YBNA 131100Z AUTO 00000KT 9999 // SCT060 17/15 Q1015

Closest aviation forecast (TAF) to Ballina Byron Gateway Airport

Closest forecast is Gold Coast Airport, 40.3 nm (74.7 km) N. Retrieved 2019/11/13 06:00 UTC (5 hours ago):

TAF YBCG 130513Z 1306/1406 16016KT 8000 FU SCT025 FM130800 17008KT 8000 FU SCT020 BKN035 FM132300 06012KT 9999 NSW FEW030